Ava Foss — WDF5779 — position and weather

sailwx.info

Track history (hours):
 
Tides and Currents Weather Stations Pressure Air Temp Water Temp Dewpoint Dewpoint Depression Visibility Wind Speed Wind Dir Waves Ship Positions

Ava Foss

Owner: Foss Maritime Company, Seattle, WA. More information available from US FCC via Universal Licensing System and Coast Guard Vessel Documentation Center.

Last reported at 2017-Oct-15 23:12 UTC. Time now 2017-Nov-23 07:46 UTC.
Position N 33°44' W 118°16'.
Warning: this ship's position is 38 days out of date.

Length 10 m; draft 2.5 m.

Type: Passenger vessel. MMSI: 367467120.

Date/timePositionNaut miles runAvg speedWind from/ knotsBaromVisibWave heightAir tempDewpointWater temp
2017-Oct-15 23:12N 33°44' W 118°16'0 0.9
2017-Oct-15 23:00N 33°44' W 118°16'5 9.1
2017-Oct-15 22:29N 33°42' W 118°21'  
2017-Oct-10 14:56N 33°54' W 118°26'1 0.1
2017-Oct-09 22:03N 33°55' W 118°27'0 0.1
2017-Oct-09 21:53N 33°55' W 118°27'3 0.1
2017-Oct-08 19:40N 33°52' W 118°26'4 5.9
2017-Oct-08 19:02N 33°55' W 118°28'0 0.8
2017-Oct-08 18:50N 33°55' W 118°28'0 1.2
2017-Oct-08 18:27N 33°55' W 118°27'0 0.2
2017-Oct-08 17:54N 33°55' W 118°27'  
Track history (hours):
 
Tides and Currents Weather Stations Pressure Air Temp Water Temp Dewpoint Dewpoint Depression Visibility Wind Speed Wind Dir Waves Ship Positions

Ava Foss

Owner: Foss Maritime Company, Seattle, WA. More information available from US FCC via Universal Licensing System and Coast Guard Vessel Documentation Center.

Last reported at 2017-Oct-15 23:12 UTC. Time now 2017-Nov-23 07:46 UTC.
Position N 33°44' W 118°16'.
Warning: this ship's position is 38 days out of date.

Length 10 m; draft 2.5 m.

Type: Passenger vessel. MMSI: 367467120.

Date/timePositionNaut miles runAvg speedWind from/ knotsBaromVisibWave heightAir tempDewpointWater temp
2017-Oct-15 23:12N 33°44' W 118°16'0 0.9
2017-Oct-15 23:00N 33°44' W 118°16'5 9.1
2017-Oct-15 22:29N 33°42' W 118°21'  
2017-Oct-10 14:56N 33°54' W 118°26'1 0.1
2017-Oct-09 22:03N 33°55' W 118°27'0 0.1
2017-Oct-09 21:53N 33°55' W 118°27'3 0.1
2017-Oct-08 19:40N 33°52' W 118°26'4 5.9
2017-Oct-08 19:02N 33°55' W 118°28'0 0.8
2017-Oct-08 18:50N 33°55' W 118°28'0 1.2
2017-Oct-08 18:27N 33°55' W 118°27'0 0.2
2017-Oct-08 17:54N 33°55' W 118°27'  

Dump ship's entire track history